Tempos de volta de RENTAL PROVA 18 - 19:30
KARTODROMO INTERNACIONAL GRANJA VIANA a funcionar KGV RACE TRACKS - CIRCUITO 101
Tempos de volta de RENTAL - PROVA 18 - 19:30


Hora do dia Volta Volta do Líder Volta Tm Velocidade
013 - LEANDRO ORSI DE FREITAS - RENTAL
19:45:32.597 1 1 58.619 62,335
19:46:31.544 2 2 58.947 61,988
19:47:30.248 3 3 58.704 62,244
19:48:29.533 4 4 59.285 61,634
19:49:28.180 5 5 58.647 62,305
19:50:26.588 6 6 58.408 62,560
19:51:25.063 7 7 58.475 62,488
19:52:23.292 8 8 58.229 62,752
19:53:22.031 9 9 58.739 62,207
19:54:20.305 10 10 58.274 62,704
19:55:19.080 11 11 58.775 62,169
19:56:17.384 12 12 58.304 62,672
19:57:15.805 13 13 58.421 62,546
19:58:14.348 14 14 58.543 62,416
19:59:12.754 15 15 58.406 62,562
20:00:12.100 16 16 59.346 61,571
20:01:11.474 17 17 59.374 61,542
20:02:09.848 18 18 58.374 62,596
011 - THIAGO MILANESI DO PRADO - RENTAL
19:45:33.195 1 1 58.939 61,996
19:46:31.857 2 2 58.662 62,289
19:47:30.877 3 3 59.020 61,911
19:48:30.275 4 4 59.398 61,517
19:49:29.153 5 5 58.878 62,061
19:50:27.728 6 6 58.575 62,382
19:51:26.839 7 7 59.111 61,816
19:52:25.337 8 8 58.498 62,464
19:53:23.968 9 9 58.631 62,322
19:54:22.891 10 10 58.923 62,013
19:55:21.375 11 11 58.484 62,479
19:56:20.156 12 12 58.781 62,163
19:57:19.179 13 13 59.023 61,908
19:58:18.612 14 14 59.433 61,481
19:59:17.220 15 15 58.608 62,346
20:00:15.808 16 16 58.588 62,368
20:01:15.164 17 17 59.356 61,561
20:02:14.731 18 18 59.567 61,343
019 - DEWANDRE HUGO MACEDO - RENTAL
19:45:35.919 1 1 1:00.036 60,863
19:46:36.237 2 2 1:00.318 60,579
19:47:35.937 3 3 59.700 61,206
19:48:35.686 4 4 59.749 61,156
19:49:35.805 5 5 1:00.119 60,779
19:50:35.724 6 6 59.919 60,982
19:51:36.045 7 7 1:00.321 60,576
19:52:37.244 8 8 1:01.199 59,707
19:53:38.498 9 9 1:01.254 59,653
19:54:38.746 10 10 1:00.248 60,649
19:55:38.378 11 11 59.632 61,276
19:56:38.579 12 12 1:00.201 60,697
19:57:37.994 13 13 59.415 61,500
19:58:37.522 14 14 59.528 61,383
19:59:38.348 15 15 1:00.826 60,073
20:00:38.206 16 16 59.858 61,044
20:01:37.596 17 17 59.390 61,526
20:02:37.545 18 18 59.949 60,952
003 - RODRIGO ALVES RODRIGUES - RENTAL
19:45:34.727 1 1 59.795 61,109
19:46:34.726 2 2 59.999 60,901
19:47:34.439 3 3 59.713 61,193
19:48:34.816 4 4 1:00.377 60,520
19:49:34.615 5 5 59.799 61,105
19:50:35.083 6 6 1:00.468 60,429
19:51:35.643 7 7 1:00.560 60,337
19:52:37.226 8 8 1:01.583 59,335
19:53:38.018 9 9 1:00.792 60,107
19:54:37.786 10 10 59.768 61,136
19:55:37.348 11 11 59.562 61,348
19:56:36.863 12 12 59.515 61,396
19:57:37.247 13 13 1:00.384 60,513
19:58:36.891 14 14 59.644 61,263
19:59:38.013 15 15 1:01.122 59,782
20:00:37.593 16 16 59.580 61,329
20:01:37.096 17 17 59.503 61,409
20:02:37.647 18 18 1:00.551 60,346
021 - LUCAS HORTENCIO - RENTAL
19:45:46.387 1 1 1:00.812 60,087
19:46:48.848 2 2 1:02.461 58,501
19:47:48.530 3 3 59.682 61,224
19:48:47.773 4 4 59.243 61,678
19:49:47.439 5 5 59.666 61,241
19:50:47.683 6 6 1:00.244 60,653
19:51:47.841 7 7 1:00.158 60,740
19:52:47.437 8 8 59.596 61,313
19:53:47.193 9 9 59.756 61,149
19:54:46.357 10 10 59.164 61,761
19:55:46.549 11 11 1:00.192 60,706
19:56:45.454 12 12 58.905 62,032
19:57:44.669 13 13 59.215 61,707
19:58:43.449 14 14 58.780 62,164
19:59:43.956 15 15 1:00.507 60,390
20:00:44.423 16 16 1:00.467 60,430
20:01:44.004 17 17 59.581 61,328
20:02:43.514 18 18 59.510 61,401
001 - RODOLFO ALVES RODRIGUES - RENTAL
19:45:38.188 1 1 1:00.517 60,380
19:46:38.889 2 2 1:00.701 60,197
19:47:39.687 3 3 1:00.798 60,101
19:48:40.280 4 4 1:00.593 60,304
19:49:41.352 5 5 1:01.072 59,831
19:50:42.009 6 6 1:00.657 60,240
19:51:42.604 7 7 1:00.595 60,302
19:52:42.855 8 8 1:00.251 60,646
19:53:43.184 9 9 1:00.329 60,568
19:54:44.823 10 10 1:01.639 59,281
19:55:45.219 11 11 1:00.396 60,501
19:56:45.135 12 12 59.916 60,985
19:57:46.121 13 13 1:00.986 59,915
19:58:46.631 14 14 1:00.510 60,387
19:59:46.622 15 15 59.991 60,909
20:00:49.461 16 16 1:02.839 58,149
20:01:49.989 17 17 1:00.528 60,369
20:02:49.997 18 18 1:00.008 60,892
036 - MICHEL GEIGER DAMASCENO - RENTAL
19:45:37.748 1 1 1:00.471 60,426
19:46:39.075 2 2 1:01.327 59,582
19:47:41.098 3 3 1:02.023 58,914
19:48:41.000 4 4 59.902 61,000
19:49:41.459 5 5 1:00.459 60,438
19:50:42.951 6 6 1:01.492 59,422
19:51:43.192 7 7 1:00.241 60,656
19:52:46.466 8 8 1:03.274 57,749
19:53:47.143 9 9 1:00.677 60,221
19:54:49.886 10 10 1:02.743 58,238
19:55:51.161 11 11 1:01.275 59,633
19:56:53.869 12 12 1:02.708 58,270
19:57:54.654 13 13 1:00.785 60,114
19:58:56.227 14 14 1:01.573 59,344
20:00:00.892 15 15 1:04.665 56,507
20:01:01.793 16 16 1:00.901 59,999
20:02:02.138 17 17 1:00.345 60,552
20:03:02.690 18 18 1:00.552 60,345
012 - PABLO RAMIRO - RENTAL
19:45:40.294 1 1 1:01.325 59,584
19:46:41.984 2 2 1:01.690 59,232
19:47:43.924 3 3 1:01.940 58,993
19:48:45.620 4 4 1:01.696 59,226
19:49:47.408 5 5 1:01.788 59,138
19:50:49.602 6 6 1:02.194 58,752
19:51:51.363 7 7 1:01.761 59,164
19:52:53.255 8 8 1:01.892 59,038
19:53:54.785 9 9 1:01.530 59,386
19:54:56.489 10 10 1:01.704 59,218
19:55:58.035 11 11 1:01.546 59,370
19:56:59.361 12 12 1:01.326 59,583
19:58:01.596 13 13 1:02.235 58,713
19:59:03.313 14 14 1:01.717 59,206
20:00:04.867 15 15 1:01.554 59,363
20:01:07.399 16 16 1:02.532 58,434
20:02:08.908 17 17 1:01.509 59,406
20:03:10.948 18 18 1:02.040 58,897
006 - MANOEL LIMA - RENTAL
19:45:49.599 1 1 1:09.436 52,624
19:46:52.001 2 2 1:02.402 58,556
19:47:52.395 3 3 1:00.394 60,503
19:48:53.507 4 4 1:01.112 59,792
19:49:54.933 5 5 1:01.426 59,486
19:50:54.870 6 6 59.937 60,964
19:51:56.684 7 7 1:01.814 59,113
19:52:58.484 8 8 1:01.800 59,126
19:54:09.657 9 9 1:11.173 51,340
19:55:11.523 10 10 1:01.866 59,063
19:56:13.932 11 11 1:02.409 58,549
19:57:15.295 12 12 1:01.363 59,547
19:58:17.534 13 14 1:02.239 58,709
19:59:19.730 14 15 1:02.196 58,750
20:00:20.954 15 16 1:01.224 59,682
20:01:22.336 16 17 1:01.382 59,529
20:02:23.603 17 18 1:01.267 59,641
020 - DIOGO MACHADO LOPES - RENTAL
19:45:44.651 1 1 1:04.077 57,025
19:46:50.773 2 2 1:06.122 55,261
19:47:54.553 3 3 1:03.780 57,291
19:48:59.561 4 4 1:05.008 56,208
19:50:11.722 5 5 1:12.161 50,637
19:51:15.203 6 6 1:03.481 57,561
19:52:19.127 7 7 1:03.924 57,162
19:53:23.235 8 9 1:04.108 56,998
19:54:27.119 9 10 1:03.884 57,197
19:55:31.522 10 11 1:04.403 56,736
19:56:36.098 11 12 1:04.576 56,584
19:57:39.300 12 13 1:03.202 57,815
19:58:41.785 13 14 1:02.485 58,478
19:59:45.133 14 15 1:03.348 57,681
20:00:49.926 15 16 1:04.793 56,395
20:01:52.801 16 17 1:02.875 58,115
20:02:57.514 17 18 1:04.713 56,465
025 - VICTOR NEIVA - RENTAL
19:46:00.683 1 1 1:03.795 57,277
19:47:14.017 2 2 1:13.334 49,827
19:48:19.290 3 3 1:05.273 55,980
19:49:23.894 4 4 1:04.604 56,560
19:50:28.756 5 6 1:04.862 56,335
19:51:33.034 6 7 1:04.278 56,847
19:52:35.727 7 8 1:02.693 58,284
19:53:39.271 8 9 1:03.544 57,503
19:54:43.480 9 10 1:04.209 56,908
19:55:47.491 10 11 1:04.011 57,084
19:56:50.388 11 12 1:02.897 58,095
19:57:53.211 12 13 1:02.823 58,163
19:58:56.009 13 14 1:02.798 58,187
20:00:00.673 14 15 1:04.664 56,507
20:01:02.583 15 16 1:01.910 59,021
20:02:07.416 16 17 1:04.833 56,360
20:03:10.346 17 18 1:02.930 58,065
034 - RICARDO BARBOSA DE ARAUJO - RENTAL
19:46:00.523 1 1 1:04.787 56,400
19:47:06.380 2 2 1:05.857 55,484
19:48:10.539 3 3 1:04.159 56,952
19:49:14.015 4 4 1:03.476 57,565
19:50:26.477 5 5 1:12.462 50,426
19:51:29.762 6 7 1:03.285 57,739
19:52:34.987 7 8 1:05.225 56,021
19:53:38.033 8 9 1:03.046 57,958
19:54:43.829 9 10 1:05.796 55,535
19:55:48.256 10 11 1:04.427 56,715
19:56:51.231 11 12 1:02.975 58,023
19:57:54.498 12 13 1:03.267 57,755
19:58:56.735 13 14 1:02.237 58,711
20:00:07.676 14 15 1:10.941 51,508
20:01:12.245 15 17 1:04.569 56,591
20:02:16.063 16 18 1:03.818 57,257
037 - GUSTAVO PEREIRA DE SOUZA - RENTAL
19:45:45.793 1 1 1:03.670 57,390
19:46:51.729 2 2 1:05.936 55,417
19:48:13.598 3 3 1:21.869 44,632
19:49:16.318 4 4 1:02.720 58,259
19:50:19.640 5 5 1:03.322 57,705
19:51:48.061 6 7 1:28.421 41,325
19:52:51.781 7 8 1:03.720 57,345
19:53:54.567 8 9 1:02.786 58,198
19:54:58.112 9 10 1:03.545 57,503
19:55:59.540 10 11 1:01.428 59,484
19:57:01.177 11 12 1:01.637 59,283
19:58:02.540 12 13 1:01.363 59,547
19:59:07.788 13 14 1:05.248 56,002
20:00:12.523 14 16 1:04.735 56,446
20:01:18.703 15 17 1:06.180 55,213
20:02:22.401 16 18 1:03.698 57,364
008 - MARCOS RODARTE - RENTAL
19:45:51.350 1 1 1:04.348 56,785
19:46:56.413 2 2 1:05.063 56,161
19:48:04.145 3 3 1:07.732 53,948
19:49:11.671 4 4 1:07.526 54,112
19:50:18.181 5 5 1:06.510 54,939
19:51:24.780 6 6 1:06.599 54,866
19:52:36.419 7 8 1:11.639 51,006
19:53:40.772 8 9 1:04.353 56,781
19:54:45.577 9 10 1:04.805 56,385
19:55:50.995 10 11 1:05.418 55,856
19:56:55.079 11 12 1:04.084 57,019
19:58:00.482 12 13 1:05.403 55,869
19:59:07.518 13 14 1:07.036 54,508
20:00:12.240 14 16 1:04.722 56,457
20:01:18.272 15 17 1:06.032 55,337
20:02:23.091 16 18 1:04.819 56,372
046 - ARTHUR LIMA MAZUR - RENTAL
19:45:47.595 1 1 1:01.922 59,010
19:46:52.456 2 2 1:04.861 56,336
19:47:55.654 3 3 1:03.198 57,818
19:48:58.639 4 4 1:02.985 58,014
19:50:00.198 5 5 1:01.559 59,358
19:51:02.495 6 6 1:02.297 58,655
19:52:05.134 7 7 1:02.639 58,334
19:53:07.386 8 8 1:02.252 58,697
19:54:10.487 9 9 1:03.101 57,907
19:55:23.698 10 11 1:13.211 49,911
19:56:26.463 11 12 1:02.765 58,217
19:57:29.017 12 13 1:02.554 58,414
19:58:31.725 13 14 1:02.708 58,270
19:59:40.047 14 15 1:08.322 53,482
20:00:55.641 15 16 1:15.594 48,337
032 - CHRISTIAN CAMPOS OLIVEIRA - RENTAL
19:45:53.545 1 1 1:08.266 53,526
19:47:17.340 2 2 1:23.795 43,606
19:48:23.862 3 3 1:06.522 54,929
19:49:30.677 4 5 1:06.815 54,688
19:50:36.622 5 6 1:05.945 55,410
19:51:42.907 6 7 1:06.285 55,126
19:53:02.457 7 8 1:19.550 45,933
19:54:09.452 8 9 1:06.995 54,541
19:55:14.274 9 10 1:04.822 56,370
19:56:25.416 10 12 1:11.142 51,362
19:57:36.490 11 13 1:11.074 51,411
19:58:46.085 12 14 1:09.595 52,504
19:59:57.276 13 15 1:11.191 51,327
20:01:08.596 14 16 1:11.320 51,234
20:02:22.196 15 18 1:13.600 49,647
052 - ANDRE COLLA - RENTAL
19:46:10.977 1 1 1:09.425 52,632
19:47:22.265 2 2 1:11.288 51,257
19:48:32.743 3 4 1:10.478 51,846
19:49:42.671 4 5 1:09.928 52,254
19:50:52.820 5 6 1:10.149 52,089
19:52:00.515 6 7 1:07.695 53,977
19:53:09.541 7 8 1:09.026 52,937
19:54:19.001 8 9 1:09.460 52,606
19:55:28.497 9 11 1:09.496 52,579
19:56:36.788 10 12 1:08.291 53,506
19:58:01.333 11 13 1:24.545 43,220
19:59:08.846 12 14 1:07.513 54,123
20:00:14.984 13 16 1:06.138 55,248
20:01:21.623 14 17 1:06.639 54,833
20:02:43.346 15 18 1:21.723 44,712
016 - LEONARDO FERREIRA - RENTAL
19:46:12.422 1 1 1:13.461 49,741
19:47:22.976 2 2 1:10.554 51,790
19:48:44.211 3 4 1:21.235 44,981
19:49:56.739 4 5 1:12.528 50,381
19:51:09.597 5 6 1:12.858 50,152
19:52:23.555 6 8 1:13.958 49,406
19:53:37.547 7 9 1:13.992 49,384
19:54:50.948 8 10 1:13.401 49,781
19:56:03.699 9 11 1:12.751 50,226
19:57:16.742 10 13 1:13.043 50,025
19:58:31.572 11 14 1:14.830 48,831
19:59:44.672 12 15 1:13.100 49,986
20:00:59.897 13 16 1:15.225 48,574
20:02:15.927 14 18 1:16.030 48,060
044 - DIOGO MINORU - RENTAL
19:46:38.065 1 2 1:32.503 39,501
19:48:07.539 2 3 1:29.474 40,839
19:49:13.702 3 4 1:06.163 55,227
19:50:32.880 4 6 1:19.178 46,149
19:51:40.099 5 7 1:07.219 54,360
19:52:47.035 6 8 1:06.936 54,589
19:53:52.243 7 9 1:05.208 56,036
19:55:06.463 8 10 1:14.220 49,232
19:56:35.794 9 12 1:29.331 40,904
19:57:42.061 10 13 1:06.267 55,141
19:58:47.375 11 14 1:05.314 55,945
20:00:02.316 12 15 1:14.941 48,758
20:01:25.937 13 17 1:23.621 43,697
20:02:43.527 14 18 1:17.590 47,094
Gerada em 13/09/2020 20:04